Time;durP1;ratioP1;P1;durP2;ratioP2;P2;SDS_P1;SDS_P2;PMS_P1;PMS_P2;Temp;Humidity;BMP_temperature;BMP_pressure;BME280_temperature;BME280_humidity;BME280_pressure;Samples;Min_cycle;Max_cycle;Signal;HPM_P1;HPM_P2
2022/02/07 00:00:24;;;;;;;12.63;1.17;;;;;;;-142.75;100.00;77763.38;5031878;28;20075;-69
2022/02/07 00:05:23;;;;;;;7.47;1.43;;;;;;;-142.75;100.00;77765.34;5032867;28;20029;-69
2022/02/07 00:07:48;;;;;;;11.07;1.50;;;;;;;-142.75;100.00;77773.22;5032870;28;20399;-68
2022/02/07 00:10:14;;;;;;;15.98;2.67;;;;;;;-142.75;100.00;77777.16;5032864;28;20025;-69
2022/02/07 00:12:45;;;;;;;9.13;1.90;;;;;;;-142.75;100.00;77779.13;5032980;28;20029;-69
2022/02/07 00:15:11;;;;;;;15.27;2.33;;;;;;;-142.75;100.00;77810.63;5031516;28;20083;-69
2022/02/07 00:17:36;;;;;;;11.80;1.77;;;;;;;-142.75;100.00;77822.44;5031409;28;20434;-70
2022/02/07 00:20:08;;;;;;;14.43;1.80;;;;;;;-142.75;100.00;77830.31;5031244;28;20392;-70
2022/02/07 00:22:34;;;;;;;13.00;2.03;;;;;;;-142.75;100.00;77818.50;5032933;28;20495;-70
2022/02/07 00:24:59;;;;;;;15.18;2.13;;;;;;;-142.75;100.00;77840.16;5032629;28;20045;-70
2022/02/07 00:27:24;;;;;;;14.32;2.05;;;;;;;-142.75;100.00;77844.09;5039528;28;20537;-70
2022/02/07 00:29:50;;;;;;;11.60;1.83;;;;;;;-142.75;100.00;77846.06;5052286;28;20033;-70
2022/02/07 00:32:15;;;;;;;10.50;1.93;;;;;;;-142.75;100.00;77857.88;5051228;28;20107;-70
2022/02/07 00:34:40;;;;;;;12.48;1.50;;;;;;;-142.75;100.00;77867.72;5052319;28;20029;-70
2022/02/07 00:37:06;;;;;;;12.25;2.15;;;;;;;-142.75;100.00;77857.88;5052481;28;20017;-70
2022/02/07 00:39:40;;;;;;;12.90;2.17;;;;;;;-142.75;100.00;77865.75;5050928;28;20084;-70
2022/02/07 00:42:08;;;;;;;13.40;1.83;;;;;;;-142.75;100.00;77850.00;5031723;28;20033;-70
2022/02/07 00:44:34;;;;;;;14.43;1.60;;;;;;;-142.75;100.00;77857.88;5030878;28;20452;-70
2022/02/07 00:47:05;;;;;;;16.30;2.90;;;;;;;-142.75;100.00;77850.00;5030926;28;20116;-69
2022/02/07 00:49:31;;;;;;;20.93;2.30;;;;;;;-142.75;100.00;77857.88;5030770;28;20029;-69
2022/02/07 00:51:56;;;;;;;12.27;1.98;;;;;;;-142.75;100.00;77855.91;5032260;28;20427;-69
2022/02/07 00:54:22;;;;;;;9.53;2.17;;;;;;;-142.75;100.00;77848.03;5032092;28;20033;-69
2022/02/07 00:56:47;;;;;;;18.52;2.40;;;;;;;-142.75;100.00;77846.06;5032211;28;20053;-69
2022/02/07 00:59:13;;;;;;;12.90;2.22;;;;;;;-142.75;100.00;77832.28;5031832;28;20021;-69
2022/02/07 01:01:38;;;;;;;14.98;2.88;;;;;;;-142.75;100.00;77826.38;5030755;28;20022;-70
2022/02/07 01:04:04;;;;;;;17.67;1.80;;;;;;;-142.75;100.00;77810.63;5032035;28;20028;-70
2022/02/07 01:06:29;;;;;;;16.38;2.50;;;;;;;-142.75;100.00;77818.50;5030753;28;20028;-70
2022/02/07 01:09:10;;;;;;;14.93;2.20;;;;;;;-142.75;100.00;77828.34;5031668;28;20036;-70
2022/02/07 01:14:40;;;;;;;9.07;1.80;;;;;;;-142.75;100.00;77820.47;5031760;28;20067;-70
2022/02/07 01:18:12;;;;;;;17.13;2.20;;;;;;;-142.75;100.00;77830.31;5031954;28;20033;-69
2022/02/07 01:20:10;;;;;;;11.17;1.97;;;;;;;-142.75;100.00;77832.28;5031189;28;20483;-70
2022/02/07 01:47:38;;;;;;;10.73;1.85;;;;;;;-142.75;100.00;77940.59;5051836;28;20047;-68
2022/02/07 01:50:17;;;;;;;10.13;2.07;;;;;;;-142.75;100.00;77950.44;5051085;28;20033;-68
2022/02/07 01:57:35;;;;;;;11.95;2.88;;;;;;;-142.75;100.00;77993.75;5055398;28;20044;-70
2022/02/07 02:00:00;;;;;;;14.18;3.53;;;;;;;-142.75;100.00;78017.38;5055064;28;20131;-69
2022/02/07 02:02:26;;;;;;;11.43;2.30;;;;;;;-142.75;100.00;78007.53;5055334;28;20035;-70
2022/02/07 02:04:51;;;;;;;13.98;2.10;;;;;;;-142.75;100.00;77997.69;5055158;28;20024;-69
2022/02/07 02:07:17;;;;;;;12.07;2.47;;;;;;;-142.75;100.00;78003.59;5053899;28;20074;-70
2022/02/07 02:09:42;;;;;;;10.50;2.13;;;;;;;-142.75;100.00;78005.56;5054917;28;20382;-70
2022/02/07 02:12:08;;;;;;;11.38;1.83;;;;;;;-142.75;100.00;78003.59;5053812;28;20021;-70
2022/02/07 02:17:34;;;;;;;11.40;1.50;;;;;;;-142.75;100.00;78021.31;5055105;28;20375;-70
2022/02/07 02:38:27;;;;;;;12.70;1.70;;;;;;;-142.75;100.00;78050.84;5054566;28;20119;-69
2022/02/07 02:46:24;;;;;;;17.07;2.87;;;;;;;-142.75;100.00;78054.81;5054529;28;20078;-69
2022/02/07 02:48:50;;;;;;;9.83;1.80;;;;;;;-142.75;100.00;78054.81;5054121;28;20506;-69
2022/02/07 02:51:16;;;;;;;14.20;1.58;;;;;;;-142.75;100.00;78058.72;5052929;28;20020;-69
2022/02/07 02:53:42;;;;;;;13.40;2.38;;;;;;;-142.75;100.00;78066.63;5054290;28;20394;-70
2022/02/07 02:56:07;;;;;;;14.30;1.52;;;;;;;-142.75;100.00;78066.63;5054155;28;20021;-69
2022/02/07 02:58:32;;;;;;;12.13;2.33;;;;;;;-142.75;100.00;78062.69;5052684;28;20025;-69
2022/02/07 03:00:58;;;;;;;17.48;1.92;;;;;;;-142.75;100.00;78068.59;5054223;28;20021;-70
2022/02/07 03:03:23;;;;;;;14.80;2.63;;;;;;;-142.75;100.00;78074.50;5054202;28;20438;-70
2022/02/07 03:05:49;;;;;;;7.05;1.58;;;;;;;-142.75;100.00;78066.63;5053273;28;20364;-69
2022/02/07 03:08:16;;;;;;;11.45;1.50;;;;;;;-142.75;100.00;78068.59;5053773;28;20025;-69
2022/02/07 03:11:08;;;;;;;15.13;1.87;;;;;;;-142.75;100.00;78078.44;5053826;28;20036;-69
2022/02/07 03:18:37;;;;;;;18.17;2.30;;;;;;;-142.75;100.00;78094.19;5053666;28;20044;-69
2022/02/07 03:21:03;;;;;;;10.13;2.40;;;;;;;-142.75;100.00;78094.19;5053838;28;20475;-70
2022/02/07 03:23:28;;;;;;;;;;;;;;;-142.75;100.00;78106.00;5052869;28;20263;-70
2022/02/07 03:25:55;;;;;;;15.40;2.53;;;;;;;-142.75;100.00;78113.88;5053739;28;19908;-70
2022/02/07 03:28:22;;;;;;;11.90;2.10;;;;;;;-142.75;100.00;78117.81;5053318;28;20025;-69
2022/02/07 03:30:48;;;;;;;16.90;2.30;;;;;;;-142.75;100.00;78127.66;5053617;28;20029;-69
2022/02/07 03:33:14;;;;;;;13.80;2.20;;;;;;;-142.75;100.00;78135.53;5053781;28;20360;-69
2022/02/07 03:35:39;;;;;;;11.98;1.67;;;;;;;-142.75;100.00;78149.31;5053343;28;20028;-69
2022/02/07 03:38:06;;;;;;;13.02;1.88;;;;;;;-142.75;100.00;78149.31;5051947;28;20033;-69
2022/02/07 03:40:32;;;;;;;21.30;2.93;;;;;;;-142.75;100.00;78157.19;5053462;28;20538;-69
2022/02/07 03:42:57;;;;;;;13.90;1.85;;;;;;;-142.75;100.00;78169.00;5053450;28;20096;-69
2022/02/07 03:45:23;;;;;;;17.65;1.83;;;;;;;-142.75;100.00;78163.09;5072730;22;20499;-66
2022/02/07 03:47:48;;;;;;;15.10;2.08;;;;;;;-142.75;100.00;78172.94;5051332;28;20399;-67
2022/02/07 03:50:14;;;;;;;21.50;3.28;;;;;;;-142.75;100.00;78176.88;5035020;28;20021;-66
2022/02/07 03:52:39;;;;;;;17.45;2.33;;;;;;;-142.75;100.00;78184.78;5035368;28;20549;-66
2022/02/07 03:55:06;;;;;;;17.10;2.75;;;;;;;-142.75;100.00;78174.91;5053014;28;20029;-66
2022/02/07 03:57:31;;;;;;;14.93;2.33;;;;;;;-142.75;100.00;78184.78;5053136;28;20025;-66
2022/02/07 03:59:56;;;;;;;19.60;2.65;;;;;;;-142.75;100.00;78186.75;5052895;28;20028;-66
2022/02/07 04:02:22;;;;;;;12.00;1.95;;;;;;;-142.75;100.00;78184.78;5053353;28;20020;-66
2022/02/07 04:04:54;;;;;;;13.27;2.75;;;;;;;-142.75;100.00;78184.78;5052762;28;20543;-66
2022/02/07 04:07:20;;;;;;;14.37;1.80;;;;;;;-142.75;100.00;78192.66;5035119;28;20021;-66
2022/02/07 04:09:50;;;;;;;12.80;2.67;;;;;;;-142.75;100.00;78202.50;5052653;28;20394;-66
2022/02/07 04:12:20;;;;;;;16.67;1.90;;;;;;;-142.75;100.00;78204.47;5052863;28;20016;-66
2022/02/07 04:14:45;;;;;;;15.37;2.13;;;;;;;-142.75;100.00;78206.44;5052733;28;20027;-66
2022/02/07 04:17:16;;;;;;;17.38;2.20;;;;;;;-142.75;100.00;78208.41;5052763;28;20029;-66
2022/02/07 04:19:41;;;;;;;21.60;3.13;;;;;;;-142.75;100.00;78226.13;5052457;28;20123;-66
2022/02/07 04:22:08;;;;;;;18.10;2.30;;;;;;;-142.75;100.00;78218.25;5052693;28;20103;-66
2022/02/07 04:24:34;;;;;;;18.37;2.97;;;;;;;-142.75;100.00;78239.91;5052555;28;20299;-66
2022/02/07 04:26:59;;;;;;;11.80;2.25;;;;;;;-142.75;100.00;78232.03;5052627;28;20517;-66
2022/02/07 04:29:24;;;;;;;12.43;2.08;;;;;;;-142.75;100.00;78230.06;5034273;28;20067;-66
2022/02/07 04:31:50;;;;;;;24.02;3.22;;;;;;;-142.75;100.00;78235.97;5052557;28;20075;-66
2022/02/07 04:34:15;;;;;;;14.98;2.60;;;;;;;-142.75;100.00;78235.97;5052204;28;20028;-66
2022/02/07 04:36:45;;;;;;;13.23;2.33;;;;;;;-142.75;100.00;78239.91;5052406;28;20029;-67
2022/02/07 04:39:12;;;;;;;18.83;2.50;;;;;;;-142.75;100.00;78247.78;5052052;28;20116;-66
2022/02/07 04:41:41;;;;;;;17.10;2.20;;;;;;;-142.75;100.00;78253.69;5052290;28;20017;-66
2022/02/07 04:44:11;;;;;;;18.13;2.67;;;;;;;-142.75;100.00;78251.72;5052048;28;20021;-66
2022/02/07 04:46:58;;;;;;;19.03;2.43;;;;;;;-142.75;100.00;78259.59;5052159;28;20087;-66
2022/02/07 05:00:24;;;;;;;23.80;3.13;;;;;;;-142.75;100.00;78283.22;5051954;28;20060;-67
2022/02/07 05:16:02;;;;;;;14.73;2.40;;;;;;;-142.75;100.00;78295.06;5051680;28;20467;-66
2022/02/07 05:18:30;;;;;;;14.25;2.85;;;;;;;-142.75;100.00;78299.00;5051637;28;20032;-66
2022/02/07 05:20:55;;;;;;;17.03;2.70;;;;;;;-142.75;100.00;78308.84;5052098;28;20025;-66
2022/02/07 05:23:21;;;;;;;13.65;2.25;;;;;;;-142.75;100.00;78320.66;5051709;28;20033;-67
2022/02/07 05:25:46;;;;;;;28.83;2.70;;;;;;;-142.75;100.00;78336.41;5051676;28;20021;-67
2022/02/07 05:28:11;;;;;;;16.13;2.50;;;;;;;-142.75;100.00;78328.53;5050986;28;20263;-66
2022/02/07 05:30:37;;;;;;;12.03;2.30;;;;;;;-142.75;100.00;78342.31;5051670;28;20267;-66
2022/02/07 05:33:02;;;;;;;17.17;3.17;;;;;;;-142.75;100.00;78350.19;5051523;28;20017;-66
2022/02/07 05:35:28;;;;;;;18.55;3.13;;;;;;;-142.75;100.00;78352.16;5051503;28;20025;-67
2022/02/07 05:37:53;;;;;;;21.75;3.53;;;;;;;-142.75;100.00;78354.13;5051271;28;20151;-66
2022/02/07 05:42:56;;;;;;;13.10;3.10;;;;;;;-142.75;100.00;78373.81;5051765;28;20482;-67
2022/02/07 05:45:21;;;;;;;21.10;3.03;;;;;;;-142.75;100.00;78377.75;5051352;28;20032;-66
2022/02/07 05:47:46;;;;;;;10.93;2.30;;;;;;;-142.75;100.00;78385.63;5051227;28;20036;-66
2022/02/07 05:50:12;;;;;;;16.98;2.97;;;;;;;-142.75;100.00;78385.63;5051411;28;20017;-66
2022/02/07 05:52:37;;;;;;;17.70;2.60;;;;;;;-142.75;100.00;78393.50;5051440;28;20048;-66
2022/02/07 05:55:02;;;;;;;21.73;3.25;;;;;;;-142.75;100.00;78381.69;5051258;28;20025;-66
2022/02/07 05:57:28;;;;;;;17.25;2.60;;;;;;;-142.75;100.00;78385.63;5051372;28;20036;-66
2022/02/07 05:59:53;;;;;;;19.77;2.88;;;;;;;-142.75;100.00;78381.69;5051072;28;20023;-66
2022/02/07 06:02:18;;;;;;;19.73;2.23;;;;;;;-142.75;100.00;78397.44;5051369;28;20017;-66
2022/02/07 06:04:44;;;;;;;11.32;2.03;;;;;;;-142.75;100.00;78393.50;5051258;28;20255;-66
2022/02/07 06:07:09;;;;;;;20.17;3.55;;;;;;;-142.75;100.00;78405.34;5051339;28;20474;-66
2022/02/07 06:09:34;;;;;;;18.33;3.00;;;;;;;-142.75;100.00;78409.28;5051038;28;20041;-66
2022/02/07 06:12:00;;;;;;;19.48;3.13;;;;;;;-142.75;100.00;78403.38;5051186;28;20037;-66
2022/02/07 06:14:25;;;;;;;18.35;3.00;;;;;;;-142.75;100.00;78407.31;5051105;28;20117;-66
2022/02/07 06:16:50;;;;;;;17.48;2.13;;;;;;;-142.75;100.00;78417.16;5051153;28;20036;-66
2022/02/07 06:19:15;;;;;;;21.88;3.05;;;;;;;-142.75;100.00;78411.25;5050960;28;20047;-66
2022/02/07 06:21:41;;;;;;;13.15;2.67;;;;;;;-142.75;100.00;78425.03;5051256;28;20029;-66
2022/02/07 06:24:07;;;;;;;17.55;2.38;;;;;;;-142.75;100.00;78434.88;5051103;28;20023;-66
2022/02/07 06:26:33;;;;;;;17.20;2.75;;;;;;;-142.75;100.00;78432.91;5051045;28;20510;-66
2022/02/07 06:28:58;;;;;;;;;;;;;;;-142.75;100.00;78438.81;5051284;28;20036;-66
2022/02/07 06:31:25;;;;;;;16.27;2.77;;;;;;;-142.75;100.00;78444.72;5051316;28;20298;-66
2022/02/07 06:33:50;;;;;;;15.70;3.00;;;;;;;-142.75;100.00;78442.75;5050966;28;20279;-66
2022/02/07 06:36:16;;;;;;;27.95;3.00;;;;;;;-142.75;100.00;78452.59;5050867;28;20017;-66
2022/02/07 06:38:41;;;;;;;22.20;2.67;;;;;;;-142.75;100.00;78452.59;5037248;28;20075;-66
2022/02/07 06:41:07;;;;;;;19.73;2.40;;;;;;;-142.75;100.00;78456.53;5015730;28;20025;-66
2022/02/07 06:43:32;;;;;;;20.27;2.45;;;;;;;-142.75;100.00;78458.50;5016864;28;20025;-66
2022/02/07 06:45:58;;;;;;;21.90;2.33;;;;;;;-142.75;100.00;78456.53;5034391;28;20079;-66
2022/02/07 06:48:24;;;;;;;16.50;2.83;;;;;;;-142.75;100.00;78462.44;5016383;28;20279;-66
2022/02/07 06:50:49;;;;;;;20.05;3.55;;;;;;;-142.75;100.00;78480.16;5034402;28;20029;-66
2022/02/07 06:53:15;;;;;;;18.23;2.73;;;;;;;-142.75;100.00;78486.06;5034456;28;20022;-66
2022/02/07 06:55:40;;;;;;;30.27;3.33;;;;;;;-142.75;100.00;78482.13;5034146;28;20307;-66
2022/02/07 06:58:05;;;;;;;23.73;2.90;;;;;;;-142.75;100.00;78480.16;5016238;28;20261;-67
2022/02/07 07:00:30;;;;;;;20.70;2.73;;;;;;;-142.75;100.00;78491.97;5034288;28;20034;-66
2022/02/07 07:02:56;;;;;;;13.55;2.47;;;;;;;-142.75;100.00;78501.84;5034330;28;20033;-66
2022/02/07 07:05:23;;;;;;;18.40;3.07;;;;;;;-142.75;100.00;78513.66;5034303;28;20017;-67
2022/02/07 07:07:49;;;;;;;21.37;3.40;;;;;;;-142.75;100.00;78515.63;5033966;28;20295;-66
2022/02/07 07:10:15;;;;;;;18.15;3.88;;;;;;;-142.75;100.00;78519.56;5033973;28;20098;-67
2022/02/07 07:12:43;;;;;;;17.83;3.33;;;;;;;-142.75;100.00;78513.66;5034036;28;20108;-67
2022/02/07 07:17:37;;;;;;;21.53;2.77;;;;;;;-142.75;100.00;78515.63;5034059;28;20061;-67
2022/02/07 07:20:06;;;;;;;18.50;2.55;;;;;;;-142.75;100.00;78533.34;5033707;28;20060;-67
2022/02/07 07:22:32;;;;;;;17.87;2.43;;;;;;;-142.75;100.00;78521.53;5016034;28;20029;-67
2022/02/07 07:24:59;;;;;;;20.83;2.33;;;;;;;-142.75;100.00;78515.63;5032337;28;20387;-67
2022/02/07 07:27:28;;;;;;;14.57;1.83;;;;;;;-142.75;100.00;78525.47;5032947;28;20506;-67
2022/02/07 07:29:53;;;;;;;22.33;2.43;;;;;;;-142.75;100.00;78537.28;5032427;28;20533;-67
2022/02/07 07:32:22;;;;;;;11.32;2.10;;;;;;;-142.75;100.00;78539.25;5032792;28;20049;-67
2022/02/07 07:34:48;;;;;;;17.97;2.30;;;;;;;-142.75;100.00;78541.22;5014984;28;20507;-67
2022/02/07 07:37:13;;;;;;;25.85;2.25;;;;;;;-142.75;100.00;78547.13;5014882;28;20029;-67
2022/02/07 07:39:38;;;;;;;17.35;2.58;;;;;;;-142.75;100.00;78547.13;5014524;28;20064;-67
2022/02/07 07:42:04;;;;;;;10.68;2.47;;;;;;;-142.75;100.00;78539.25;5032924;28;20063;-66
2022/02/07 07:44:33;;;;;;;17.42;2.60;;;;;;;-142.75;100.00;78541.22;5014651;28;20029;-67
2022/02/07 07:47:07;;;;;;;21.33;2.93;;;;;;;-142.75;100.00;78553.03;5032465;28;20025;-67
2022/02/07 07:49:40;;;;;;;12.40;1.93;;;;;;;-142.75;100.00;78547.13;5032322;28;20025;-67
2022/02/07 07:52:12;;;;;;;17.13;3.20;;;;;;;-142.75;100.00;78555.00;5032165;28;20025;-66
2022/02/07 07:54:57;;;;;;;17.63;3.03;;;;;;;-142.75;100.00;78556.97;5032176;28;20090;-67
2022/02/07 08:02:53;;;;;;;18.73;2.57;;;;;;;-142.75;100.00;78562.88;5032718;28;20468;-66
2022/02/07 08:08:31;;;;;;;17.47;2.73;;;;;;;-142.75;100.00;78543.19;5018598;28;20084;-67
2022/02/07 08:11:06;;;;;;;27.43;3.60;;;;;;;-142.75;100.00;78555.00;5032101;28;20021;-68
2022/02/07 08:13:33;;;;;;;18.80;2.93;;;;;;;-142.75;100.00;78570.75;5032245;28;20032;-67
2022/02/07 08:15:59;;;;;;;15.13;2.20;;;;;;;-142.75;100.00;78580.59;5031811;28;20017;-67
2022/02/07 08:18:24;;;;;;;16.75;3.33;;;;;;;-142.75;100.00;78586.53;5031872;28;20025;-67
2022/02/07 08:20:49;;;;;;;13.88;2.05;;;;;;;-142.75;100.00;78602.28;5014434;28;20407;-67
2022/02/07 08:23:15;;;;;;;23.25;2.95;;;;;;;-142.75;100.00;78586.53;5031747;28;20467;-66
2022/02/07 08:25:40;;;;;;;15.50;3.27;;;;;;;-142.75;100.00;78604.25;5031977;28;20025;-67
2022/02/07 08:28:06;;;;;;;18.30;2.80;;;;;;;-142.75;100.00;78625.91;5031579;28;20563;-67
2022/02/07 08:30:32;;;;;;;20.17;2.90;;;;;;;-142.75;100.00;78631.81;5031760;28;20026;-68
2022/02/07 08:32:58;;;;;;;22.63;2.30;;;;;;;-142.75;100.00;78637.72;5031740;28;20034;-66
2022/02/07 08:35:24;;;;;;;15.25;2.65;;;;;;;-142.75;100.00;78635.75;5031869;28;20028;-66
2022/02/07 08:37:50;;;;;;;17.58;2.65;;;;;;;-142.75;100.00;78620.00;5013481;28;20032;-67
2022/02/07 08:40:16;;;;;;;14.18;2.22;;;;;;;-142.75;100.00;78629.84;5031438;28;20021;-67
2022/02/07 08:42:42;;;;;;;23.57;2.80;;;;;;;-142.75;100.00;78633.78;5031603;28;20109;-65
2022/02/07 08:45:08;;;;;;;14.40;2.35;;;;;;;-142.75;100.00;78625.91;5014536;28;20375;-67
2022/02/07 08:47:33;;;;;;;20.65;3.00;;;;;;;-142.75;100.00;78618.03;5032431;28;20040;-67
2022/02/07 08:49:59;;;;;;;14.52;2.47;;;;;;;-142.75;100.00;78618.03;5031767;28;20067;-68
2022/02/07 08:52:25;;;;;;;18.20;3.22;;;;;;;-142.75;100.00;78602.28;5032094;28;20025;-67
2022/02/07 08:54:51;;;;;;;18.38;2.17;;;;;;;-142.75;100.00;78562.88;5032167;28;20061;-68
2022/02/07 08:57:27;;;;;;;;;;;;;;;-142.75;100.00;78525.47;5032614;28;20025;-68
2022/02/07 09:00:13;;;;;;;16.53;2.23;;;;;;;-142.75;100.00;78531.38;5014096;28;19909;-68
2022/02/07 09:08:05;;;;;;;14.87;2.70;;;;;;;-142.75;100.00;78588.50;5032182;28;20033;-68
2022/02/07 09:10:31;;;;;;;23.02;2.95;;;;;;;-142.75;100.00;78598.34;5032044;28;20029;-67
2022/02/07 09:12:56;;;;;;;19.58;3.10;;;;;;;-142.75;100.00;78621.97;5031850;28;20399;-68
2022/02/07 09:15:38;;;;;;;15.90;2.47;;;;;;;-142.75;100.00;78625.91;5031211;28;20021;-67
2022/02/07 09:18:07;;;;;;;16.77;3.37;;;;;;;-142.75;100.00;78618.03;5031582;28;20022;-68
2022/02/07 09:20:35;;;;;;;19.63;2.50;;;;;;;-142.75;100.00;78633.78;5031852;28;20594;-68
2022/02/07 09:23:00;;;;;;;10.70;2.10;;;;;;;-142.75;100.00;78639.69;5031707;28;20029;-67
2022/02/07 09:25:26;;;;;;;19.73;2.63;;;;;;;-142.75;100.00;78637.72;5031822;28;20025;-67
2022/02/07 09:27:51;;;;;;;30.42;3.67;;;;;;;-142.75;100.00;78643.63;5031441;28;20681;-67
2022/02/07 09:30:16;;;;;;;15.03;2.80;;;;;;;-142.75;100.00;78649.53;5031819;28;20037;-67
2022/02/07 09:32:42;;;;;;;23.90;3.03;;;;;;;-142.75;100.00;78625.91;5031750;28;20035;-68
2022/02/07 09:35:08;;;;;;;18.63;2.37;;;;;;;-142.75;100.00;78647.56;5031560;28;20144;-68
2022/02/07 09:37:33;;;;;;;16.52;2.60;;;;;;;-142.75;100.00;78641.66;5031589;28;20049;-68
2022/02/07 09:39:59;;;;;;;18.67;2.30;;;;;;;-142.75;100.00;78641.66;5031509;28;20037;-66
2022/02/07 09:42:25;;;;;;;22.77;5.10;;;;;;;-142.75;100.00;78629.84;5031594;28;20021;-67
2022/02/07 09:44:54;;;;;;;28.53;2.67;;;;;;;-142.75;100.00;78629.84;5031726;28;20029;-68
2022/02/07 09:47:19;;;;;;;14.77;2.60;;;;;;;-142.75;100.00;78614.09;5007972;28;20438;-68
2022/02/07 09:49:46;;;;;;;24.52;2.65;;;;;;;-142.75;100.00;78582.59;5003869;28;20026;-67
2022/02/07 09:52:11;;;;;;;19.03;3.07;;;;;;;-142.75;100.00;78503.81;5021423;28;20529;-68
2022/02/07 09:54:37;;;;;;;24.00;3.13;;;;;;;-142.75;100.00;78484.09;5002294;28;20033;-67
2022/02/07 09:57:03;;;;;;;19.00;2.75;;;;;;;-142.75;100.00;78488.03;5022024;28;20091;-67
2022/02/07 09:59:30;;;;;;;21.67;3.65;;;;;;;-142.75;100.00;78539.25;5021269;28;20388;-68
2022/02/07 10:02:01;;;;;;;16.70;2.10;;;;;;;-142.75;100.00;78566.81;5022708;28;20087;-68
2022/02/07 10:04:34;;;;;;;19.07;2.53;;;;;;;-142.75;100.00;78584.56;5029609;28;20396;-68
2022/02/07 10:07:15;;;;;;;15.33;2.10;;;;;;;-142.75;100.00;78598.34;5031532;28;20025;-68
2022/02/07 10:15:05;;;;;;;18.67;2.20;;;;;;;-142.75;100.00;78614.09;5032768;28;20029;-67
2022/02/07 10:17:47;;;;;;;21.10;2.90;;;;;;;-142.75;100.00;78614.09;5035019;28;20104;-68
2022/02/07 10:20:40;;;;;;;14.13;2.00;;;;;;;-142.75;100.00;78616.06;5034762;28;20025;-68
2022/02/07 10:46:11;;;;;;;12.53;1.50;;;;;;;-142.75;100.00;78446.69;5034949;28;20045;-68
2022/02/07 10:48:50;;;;;;;14.93;1.88;;;;;;;-142.75;100.00;78405.34;5016377;28;20036;-68
2022/02/07 10:51:25;;;;;;;12.70;2.13;;;;;;;-142.75;100.00;78340.34;5034418;28;20415;-68
2022/02/07 10:53:58;;;;;;;11.27;2.20;;;;;;;-142.75;100.00;78293.06;5016477;28;20436;-68
2022/02/07 10:56:40;;;;;;;12.52;1.65;;;;;;;-142.75;100.00;78279.28;5034192;28;20021;-67
2022/02/07 10:59:09;;;;;;;19.98;2.00;;;;;;;-142.75;100.00;78312.78;5049527;22;20052;-69
2022/02/07 11:04:20;;;;;;;15.77;2.38;;;;;;;-142.75;100.00;78403.38;5034156;28;20025;-69
2022/02/07 11:06:49;;;;;;;16.17;1.92;;;;;;;-142.75;100.00;78393.50;5033812;28;20032;-69
2022/02/07 11:17:19;;;;;;;9.75;1.50;;;;;;;-142.75;100.00;78381.69;5034297;28;20037;-69
2022/02/07 11:20:14;;;;;;;10.82;1.70;;;;;;;-142.75;100.00;78442.75;5033703;28;20033;-69
2022/02/07 11:23:06;;;;;;;15.63;2.15;;;;;;;-142.75;100.00;78478.19;5033753;28;20025;-71
2022/02/07 11:25:45;;;;;;;12.13;1.60;;;;;;;-142.75;100.00;78495.94;5033127;28;20013;-69
2022/02/07 11:28:14;;;;;;;15.93;1.88;;;;;;;-142.75;100.00;78464.41;5033496;28;20025;-70
2022/02/07 11:30:46;;;;;;;16.17;1.65;;;;;;;-142.75;100.00;78350.19;5033492;28;20025;-69
2022/02/07 11:33:51;;;;;;;10.77;1.40;;;;;;;-142.75;100.00;78235.97;5033780;28;20096;-69
2022/02/07 11:36:24;;;;;;;14.85;1.27;;;;;;;-142.75;100.00;78147.34;5033555;28;20096;-69
2022/02/07 11:38:57;;;;;;;12.20;2.20;;;;;;;-142.75;100.00;78127.66;5031977;28;20048;-70
2022/02/07 11:41:22;;;;;;;13.05;2.17;;;;;;;-142.75;100.00;78107.97;5033576;28;20029;-69
2022/02/07 11:43:48;;;;;;;13.60;2.05;;;;;;;-142.75;100.00;78078.44;5033594;28;20029;-70
2022/02/07 11:46:13;;;;;;;10.95;1.67;;;;;;;-142.75;100.00;78174.91;5033405;28;20491;-69
2022/02/07 11:48:50;;;;;;;10.13;1.67;;;;;;;-142.75;100.00;78172.94;5033027;28;20030;-69
2022/02/07 11:51:25;;;;;;;7.72;1.63;;;;;;;-142.75;100.00;78261.56;5033272;28;20029;-70
2022/02/07 11:53:55;;;;;;;12.13;1.73;;;;;;;-142.75;100.00;78300.97;5033262;28;20025;-69
2022/02/07 11:56:28;;;;;;;15.35;2.05;;;;;;;-142.75;100.00;78267.47;5033168;28;20025;-70
2022/02/07 11:59:10;;;;;;;10.50;1.90;;;;;;;-142.75;100.00;78178.84;5031556;28;20059;-70
2022/02/07 12:01:57;;;;;;;14.40;1.90;;;;;;;-142.75;100.00;78082.38;5031912;28;20033;-69
2022/02/07 12:04:34;;;;;;;;;;;;;;;-142.75;100.00;78125.69;5033663;28;20032;-69
2022/02/07 12:07:11;;;;;;;8.38;1.27;;;;;;;-142.75;100.00;78157.19;5033093;28;19909;-69
2022/02/07 12:10:03;;;;;;;9.77;1.58;;;;;;;-142.75;100.00;78141.44;5032617;28;20510;-69
2022/02/07 12:12:46;;;;;;;6.85;1.23;;;;;;;-142.75;100.00;78165.06;5031044;28;20033;-69
2022/02/07 12:15:12;;;;;;;15.00;2.50;;;;;;;-142.75;100.00;78094.19;5032905;28;20029;-69
2022/02/07 12:17:45;;;;;;;13.18;2.03;;;;;;;-142.75;100.00;78037.06;5032758;28;20036;-69
2022/02/07 12:20:14;;;;;;;10.32;1.35;;;;;;;-142.75;100.00;78044.94;5032509;28;20021;-68
2022/02/07 12:22:54;;;;;;;9.05;1.45;;;;;;;-142.75;100.00;78068.59;5032756;28;20021;-69
2022/02/07 12:25:45;;;;;;;9.80;1.55;;;;;;;-142.75;100.00;78149.31;5032615;28;20018;-70
2022/02/07 12:28:19;;;;;;;8.88;1.50;;;;;;;-142.75;100.00;78170.97;5032333;28;20032;-70
2022/02/07 12:33:11;;;;;;;13.60;1.80;;;;;;;-142.75;100.00;78362.00;5032720;28;20116;-69
2022/02/07 12:35:37;;;;;;;9.80;1.50;;;;;;;-142.75;100.00;78363.97;5032412;28;20101;-70
2022/02/07 12:38:03;;;;;;;11.15;1.60;;;;;;;-142.75;100.00;78365.94;5029922;28;20017;-70
2022/02/07 12:40:29;;;;;;;16.15;1.60;;;;;;;-142.75;100.00;78362.00;5032442;28;20040;-70
2022/02/07 12:42:55;;;;;;;18.38;2.35;;;;;;;-142.75;100.00;78377.75;5032485;28;20025;-70
2022/02/07 12:45:26;;;;;;;11.40;2.10;;;;;;;-142.75;100.00;78379.72;5031039;28;20025;-70
2022/02/07 12:47:57;;;;;;;11.00;1.67;;;;;;;-142.75;100.00;78338.38;5031920;28;20044;-69
2022/02/07 12:50:26;;;;;;;13.93;2.05;;;;;;;-142.75;100.00;78239.91;5032276;28;20026;-69
2022/02/07 12:52:55;;;;;;;10.48;1.67;;;;;;;-142.75;100.00;78157.19;5032200;28;20025;-71
2022/02/07 12:55:20;;;;;;;11.65;1.40;;;;;;;-142.75;100.00;78186.75;5030784;28;20036;-69
2022/02/07 12:57:46;;;;;;;5.45;1.17;;;;;;;-142.75;100.00;78196.59;5031820;28;20037;-69
2022/02/07 13:00:16;;;;;;;6.53;1.00;;;;;;;-142.75;100.00;78224.16;5031956;28;20052;-69
2022/02/07 13:02:47;;;;;;;12.70;1.65;;;;;;;-142.75;100.00;78228.09;5032235;28;20032;-69
2022/02/07 13:05:15;;;;;;;9.95;1.05;;;;;;;-142.75;100.00;78125.69;5032052;28;20523;-70
2022/02/07 13:07:43;;;;;;;11.65;1.35;;;;;;;-142.75;100.00;78109.94;5030519;28;20036;-69
2022/02/07 13:10:12;;;;;;;7.45;1.52;;;;;;;-142.75;100.00;78109.94;5031705;28;20437;-69
2022/02/07 13:15:23;;;;;;;7.18;1.38;;;;;;;-142.75;100.00;78090.25;5031818;28;20033;-69
2022/02/07 13:17:54;;;;;;;5.53;1.25;;;;;;;-142.75;100.00;78068.59;5031643;28;20029;-69
2022/02/07 13:20:22;;;;;;;9.30;1.52;;;;;;;-142.75;100.00;78039.03;5031868;28;20116;-69
2022/02/07 13:22:59;;;;;;;12.93;1.75;;;;;;;-142.75;100.00;78096.16;5031781;28;20021;-70
2022/02/07 13:25:24;;;;;;;10.45;1.58;;;;;;;-142.75;100.00;78076.47;5030557;28;20029;-69
2022/02/07 13:27:54;;;;;;;8.45;1.08;;;;;;;-142.75;100.00;78078.44;5030930;28;20040;-69
2022/02/07 13:30:20;;;;;;;8.63;1.45;;;;;;;-142.75;100.00;78086.31;5031777;28;20128;-70
2022/02/07 13:32:45;;;;;;;9.60;1.48;;;;;;;-142.75;100.00;78106.00;5030277;28;20045;-70
2022/02/07 13:35:13;;;;;;;10.43;1.77;;;;;;;-142.75;100.00;78121.75;5031643;28;20390;-70
2022/02/07 13:37:40;;;;;;;7.85;1.25;;;;;;;-142.75;100.00;78086.31;5031462;28;20029;-70
2022/02/07 13:40:06;;;;;;;8.98;1.55;;;;;;;-142.75;100.00;78082.38;5030097;28;20033;-70
2022/02/07 13:42:36;;;;;;;8.35;1.40;;;;;;;-142.75;100.00;78135.53;5030608;28;20037;-70
2022/02/07 13:45:06;;;;;;;9.23;1.70;;;;;;;-142.75;100.00;78188.72;5031573;28;20052;-70